Terminal Aerodrome Forecast
Issued by NWS

Home | Current Version | Previous Version | Text Only | Print | Product List | Glossary On
Versions: 1 2 3 4 5 6 7 8 9 10 11 12 13 14 15 16 17 18
000
FTUS43 KBIS 270500
TAFJMS
TAF
KJMS 270539Z 2706/2806 21003KT P6SM FEW150
     FM270900 16005KT 5SM BR SCT110 BKN150
     FM271500 16010KT P6SM FEW100 SCT150
     FM271700 17011KT P6SM FEW120
     FM272300 16007KT P6SM SKC=

USA.gov is the U.S. government's official web portal to all federal, state and local government web resources and services.